Time;durP1;ratioP1;P1;durP2;ratioP2;P2;SDS_P1;SDS_P2;PMS_P1;PMS_P2;Temp;Humidity;BMP_temperature;BMP_pressure;BME280_temperature;BME280_humidity;BME280_pressure;Samples;Min_cycle;Max_cycle;Signal;HPM_P1;HPM_P2
2021/12/29 00:02:11;;;;;;;18.40;4.25;;;;;;;7.28;100.00;100244.88;5051725;28;20420;-78
2021/12/29 00:04:37;;;;;;;26.90;4.53;;;;;;;7.28;100.00;100250.16;5049587;28;20067;-79
2021/12/29 00:07:02;;;;;;;21.67;4.07;;;;;;;7.29;100.00;100243.91;5050653;28;20037;-79
2021/12/29 00:09:29;;;;;;;19.27;3.83;;;;;;;7.29;100.00;100249.22;5050307;28;20040;-79
2021/12/29 00:11:55;;;;;;;18.70;3.80;;;;;;;7.31;100.00;100254.38;5051040;28;20033;-78
2021/12/29 00:14:20;;;;;;;24.48;4.00;;;;;;;7.33;100.00;100258.56;5052271;28;20091;-80
2021/12/29 00:16:45;;;;;;;20.75;4.00;;;;;;;7.33;100.00;100265.66;5053837;28;20448;-79
2021/12/29 00:19:11;;;;;;;26.45;4.28;;;;;;;7.32;100.00;100272.75;5055579;28;20123;-78
2021/12/29 00:21:37;;;;;;;23.52;4.03;;;;;;;7.32;100.00;100282.53;5054154;28;20060;-85
2021/12/29 00:24:05;;;;;;;18.65;3.90;;;;;;;7.35;100.00;100275.16;5055490;28;20041;-79
2021/12/29 00:26:32;;;;;;;20.20;3.65;;;;;;;7.35;100.00;100279.63;5054234;28;20037;-78
2021/12/29 00:29:00;;;;;;;25.33;3.88;;;;;;;7.33;100.00;100292.97;5053616;28;20043;-78
2021/12/29 00:31:31;;;;;;;21.77;4.25;;;;;;;7.33;100.00;100285.03;5055230;28;20028;-78
2021/12/29 00:33:57;;;;;;;21.15;3.47;;;;;;;7.34;100.00;100284.03;5053863;28;20041;-78
2021/12/29 00:36:22;;;;;;;23.75;4.00;;;;;;;7.33;100.00;100290.34;5055200;28;20060;-78
2021/12/29 00:38:48;;;;;;;25.33;3.60;;;;;;;7.33;100.00;100292.97;5053488;28;20075;-79
2021/12/29 00:41:15;;;;;;;17.67;3.40;;;;;;;7.31;100.00;100302.84;5055400;28;20466;-79
2021/12/29 00:43:40;;;;;;;17.25;3.45;;;;;;;7.32;100.00;100307.16;5054649;28;20382;-84
2021/12/29 00:46:10;;;;;;;13.57;3.40;;;;;;;7.32;100.00;100307.16;5053804;28;20120;-79
2021/12/29 00:48:38;;;;;;;16.10;3.63;;;;;;;7.33;100.00;100303.56;5055340;28;20024;-79
2021/12/29 00:51:05;;;;;;;12.20;2.45;;;;;;;7.33;100.00;100311.50;5054604;28;20033;-78
2021/12/29 00:53:30;;;;;;;16.25;3.05;;;;;;;7.30;100.00;100311.75;5055025;28;20053;-78
2021/12/29 00:55:56;;;;;;;14.15;2.72;;;;;;;7.32;100.00;100320.41;5054447;28;20121;-79
2021/12/29 00:58:21;;;;;;;16.85;3.35;;;;;;;7.31;100.00;100337.25;5053487;28;20396;-78
2021/12/29 01:00:47;;;;;;;18.73;3.22;;;;;;;7.33;100.00;100323.88;5054107;28;20029;-78
2021/12/29 01:03:13;;;;;;;17.13;3.30;;;;;;;7.33;100.00;100342.41;5054629;28;20025;-78
2021/12/29 01:05:39;;;;;;;16.00;2.80;;;;;;;7.32;100.00;100357.44;5054720;28;20037;-78
2021/12/29 01:08:05;;;;;;;20.10;3.20;;;;;;;7.32;100.00;100353.97;5054212;28;20032;-78
2021/12/29 01:10:31;;;;;;;11.10;2.90;;;;;;;7.33;100.00;100369.72;5053458;28;20355;-78
2021/12/29 01:12:59;;;;;;;12.50;2.85;;;;;;;7.35;100.00;100370.44;5052586;28;20070;-79
2021/12/29 01:15:32;;;;;;;14.40;3.13;;;;;;;7.34;100.00;100362.63;5053165;28;20079;-80
2021/12/29 01:18:01;;;;;;;15.50;3.00;;;;;;;7.33;100.00;100371.50;5053930;28;20036;-78
2021/12/29 01:20:28;;;;;;;13.63;2.85;;;;;;;7.28;100.00;100382.50;5054476;28;20036;-78
2021/12/29 01:22:53;;;;;;;11.85;2.50;;;;;;;7.32;100.00;100388.38;5035728;28;20474;-78
2021/12/29 01:25:21;;;;;;;10.45;2.30;;;;;;;7.33;100.00;100385.59;5054059;28;20060;-78
2021/12/29 01:27:47;;;;;;;16.63;2.90;;;;;;;7.33;100.00;100393.53;5052090;28;20037;-72
2021/12/29 01:30:13;;;;;;;16.63;2.65;;;;;;;7.31;100.00;100398.09;5052552;28;20407;-72
2021/12/29 01:32:40;;;;;;;16.08;2.80;;;;;;;7.31;100.00;100406.06;5052768;28;20048;-72
2021/12/29 01:35:07;;;;;;;11.73;2.45;;;;;;;7.32;100.00;100417.50;5052276;28;20017;-72
2021/12/29 01:37:32;;;;;;;9.93;2.30;;;;;;;7.28;100.00;100416.91;5052209;28;20116;-72
2021/12/29 01:39:58;;;;;;;15.93;2.10;;;;;;;7.26;100.00;100413.53;5052293;28;20028;-72
2021/12/29 01:42:23;;;;;;;13.85;2.60;;;;;;;7.26;100.00;100416.19;5052357;28;20136;-72
2021/12/29 01:44:49;;;;;;;16.10;2.92;;;;;;;7.26;100.00;100424.13;5052761;28;20060;-73
2021/12/29 01:47:27;;;;;;;14.95;3.88;;;;;;;7.27;100.00;100423.19;5052509;28;20083;-73
2021/12/29 01:49:53;;;;;;;15.38;3.05;;;;;;;7.24;100.00;100426.09;5052237;28;20029;-71
2021/12/29 01:52:23;;;;;;;19.33;3.50;;;;;;;7.23;100.00;100437.63;5052129;28;20389;-72
2021/12/29 01:54:48;;;;;;;20.75;2.88;;;;;;;7.21;100.00;100432.47;5052259;28;20066;-72
2021/12/29 01:57:14;;;;;;;14.98;3.00;;;;;;;7.21;100.00;100432.47;5052221;28;20062;-71
2021/12/29 01:59:40;;;;;;;27.20;4.03;;;;;;;7.23;100.00;100440.28;5052166;28;20483;-72
2021/12/29 02:02:05;;;;;;;20.38;4.28;;;;;;;7.23;100.00;100440.28;5051843;28;20043;-72
2021/12/29 02:04:31;;;;;;;20.13;3.50;;;;;;;7.22;100.00;100439.41;5052480;28;20125;-72
2021/12/29 02:06:56;;;;;;;16.73;3.60;;;;;;;7.17;100.00;100452.19;5051473;28;20028;-72
2021/12/29 02:09:22;;;;;;;27.85;4.35;;;;;;;7.18;100.00;100451.25;5052212;28;20111;-72
2021/12/29 02:11:47;;;;;;;22.90;3.50;;;;;;;7.18;100.00;100447.72;5052135;28;20040;-71
2021/12/29 02:14:13;;;;;;;22.55;4.03;;;;;;;7.18;100.00;100447.72;5051886;28;20148;-72
2021/12/29 02:16:39;;;;;;;25.63;4.35;;;;;;;7.18;100.00;100451.25;5050612;28;20081;-71
2021/12/29 02:19:08;;;;;;;26.20;5.60;;;;;;;7.16;100.00;100442.56;5051642;28;20120;-72
2021/12/29 02:21:34;;;;;;;28.23;5.60;;;;;;;7.14;100.00;100454.25;5051763;28;20036;-71
2021/12/29 02:26:33;;;;;;;32.40;4.63;;;;;;;7.14;100.00;100460.38;5051768;28;20159;-72
2021/12/29 02:29:01;;;;;;;34.50;5.00;;;;;;;7.16;100.00;100465.56;5051386;28;20033;-72
2021/12/29 02:31:28;;;;;;;28.02;4.95;;;;;;;7.17;100.00;100461.94;5051656;28;20036;-72
2021/12/29 02:33:54;;;;;;;30.05;5.13;;;;;;;7.17;100.00;100459.31;5051210;28;20064;-72
2021/12/29 02:36:21;;;;;;;24.70;4.60;;;;;;;7.16;100.00;100458.44;5051606;28;20032;-72
2021/12/29 02:38:51;;;;;;;27.00;5.20;;;;;;;7.15;100.00;100467.38;5050697;28;20103;-72
2021/12/29 02:41:17;;;;;;;27.52;3.97;;;;;;;7.15;100.00;100466.50;5049948;28;20334;-72
2021/12/29 02:43:43;;;;;;;16.25;3.42;;;;;;;7.16;100.00;100471.66;5051782;28;20047;-72
2021/12/29 02:46:11;;;;;;;20.70;4.43;;;;;;;7.14;100.00;100480.72;5051044;28;20072;-72
2021/12/29 02:48:41;;;;;;;25.75;4.65;;;;;;;7.13;100.00;100493.09;5049865;28;20033;-72
2021/12/29 02:51:08;;;;;;;31.45;5.18;;;;;;;7.12;100.00;100501.16;5051230;28;20043;-72
2021/12/29 02:53:35;;;;;;;37.28;5.78;;;;;;;7.12;100.00;100501.16;5051157;28;20045;-72
2021/12/29 02:56:02;;;;;;;26.85;6.00;;;;;;;7.11;100.00;100495.03;5051734;28;20043;-72
2021/12/29 02:58:27;;;;;;;33.40;6.38;;;;;;;7.11;100.00;100502.97;5051066;28;20029;-72
2021/12/29 03:00:55;;;;;;;31.38;6.45;;;;;;;7.12;100.00;100517.03;5051035;28;20021;-72
2021/12/29 03:03:24;;;;;;;42.78;6.55;;;;;;;7.09;100.00;100526.06;5051083;28;20029;-72
2021/12/29 03:05:50;;;;;;;34.88;5.10;;;;;;;7.10;100.00;100526.91;5050798;28;20032;-72
2021/12/29 03:08:17;;;;;;;33.00;6.25;;;;;;;7.11;100.00;100541.81;5051172;28;20102;-72
2021/12/29 03:10:44;;;;;;;29.45;5.47;;;;;;;7.10;100.00;100534.84;5051155;28;20028;-72
2021/12/29 03:13:09;;;;;;;27.15;5.65;;;;;;;7.10;100.00;100537.50;5050673;28;20029;-72
2021/12/29 03:15:36;;;;;;;26.77;5.15;;;;;;;7.08;100.00;100537.63;5050972;28;20040;-71
2021/12/29 03:18:03;;;;;;;34.88;4.70;;;;;;;7.09;100.00;100541.94;5050527;28;20532;-72
2021/12/29 03:20:28;;;;;;;34.42;5.43;;;;;;;7.08;100.00;100548.19;5050294;28;20028;-72
2021/12/29 03:22:54;;;;;;;30.83;4.43;;;;;;;7.06;100.00;100550.09;5050480;28;20105;-72
2021/12/29 03:25:21;;;;;;;31.17;5.05;;;;;;;7.05;100.00;100556.38;5048805;28;20040;-72
2021/12/29 03:27:47;;;;;;;33.53;4.20;;;;;;;7.03;100.00;100547.72;5050447;28;20446;-71
2021/12/29 03:30:12;;;;;;;25.58;3.75;;;;;;;7.03;100.00;100561.81;5049505;28;20036;-71
2021/12/29 03:32:48;;;;;;;23.27;3.47;;;;;;;7.03;100.00;100567.09;5050560;28;20065;-72
2021/12/29 03:35:14;;;;;;;24.50;3.42;;;;;;;7.01;100.00;100573.47;5050954;28;20029;-72
2021/12/29 03:37:39;;;;;;;24.40;4.13;;;;;;;7.01;100.00;100582.22;5050357;28;20430;-71
2021/12/29 03:40:05;;;;;;;25.77;4.72;;;;;;;7.01;100.00;100584.88;5050597;28;20032;-72
2021/12/29 03:42:32;;;;;;;23.55;3.47;;;;;;;7.01;100.00;100579.56;5050665;28;20025;-71
2021/12/29 03:45:00;;;;;;;26.30;4.35;;;;;;;7.02;100.00;100585.72;5050502;28;20104;-71
2021/12/29 03:47:25;;;;;;;22.13;3.83;;;;;;;7.01;100.00;100584.88;5050467;28;20078;-72
2021/12/29 03:49:51;;;;;;;17.08;3.03;;;;;;;6.99;100.00;100588.63;5053960;28;20375;-72
2021/12/29 03:52:16;;;;;;;19.58;3.00;;;;;;;6.98;100.00;100586.94;5056501;28;20427;-71
2021/12/29 03:54:42;;;;;;;24.00;3.03;;;;;;;6.97;100.00;100588.75;5057352;28;20083;-72
2021/12/29 03:57:07;;;;;;;21.95;3.10;;;;;;;6.95;100.00;100589.81;5056423;28;20444;-72
2021/12/29 03:59:33;;;;;;;28.85;3.55;;;;;;;6.94;100.00;100586.34;5056878;28;20045;-72
2021/12/29 04:01:59;;;;;;;24.30;3.67;;;;;;;6.95;100.00;100589.81;5055600;28;20433;-71
2021/12/29 04:04:24;;;;;;;22.48;3.30;;;;;;;6.97;100.00;100595.81;5056935;28;20041;-71
2021/12/29 04:06:50;;;;;;;21.98;3.42;;;;;;;6.96;100.00;100597.63;5057341;28;20438;-72
2021/12/29 04:09:15;;;;;;;27.05;4.35;;;;;;;6.97;100.00;100587.88;5057336;28;20037;-72
2021/12/29 04:11:41;;;;;;;21.42;3.60;;;;;;;6.94;100.00;100591.63;5057013;28;20048;-71
2021/12/29 04:14:07;;;;;;;19.70;3.80;;;;;;;6.95;100.00;100589.81;5057254;28;20549;-72
2021/12/29 04:16:37;;;;;;;17.13;3.30;;;;;;;6.93;100.00;100586.47;5057205;28;20041;-72
2021/12/29 04:19:13;;;;;;;25.58;3.90;;;;;;;6.91;100.00;100585.72;5057463;28;20055;-71
2021/12/29 04:21:39;;;;;;;25.70;4.53;;;;;;;6.87;100.00;100595.72;5057168;28;20048;-72
2021/12/29 04:24:05;;;;;;;19.55;3.80;;;;;;;6.86;100.00;100597.50;5056522;28;20055;-71
2021/12/29 04:26:33;;;;;;;20.40;3.75;;;;;;;6.85;100.00;100600.28;5056768;28;20123;-72
2021/12/29 04:28:58;;;;;;;23.25;4.30;;;;;;;6.85;100.00;100610.84;5056843;28;20110;-71
2021/12/29 04:31:24;;;;;;;21.02;3.53;;;;;;;6.87;100.00;100616.88;5056532;28;20441;-72
2021/12/29 04:33:49;;;;;;;20.05;3.90;;;;;;;6.86;100.00;100631.06;5056594;28;20029;-71
2021/12/29 04:36:15;;;;;;;23.70;3.88;;;;;;;6.84;100.00;100628.53;5056681;28;20106;-72
2021/12/29 04:38:40;;;;;;;20.60;4.35;;;;;;;6.81;100.00;100628.78;5056635;28;20365;-71
2021/12/29 04:41:06;;;;;;;26.02;4.35;;;;;;;6.81;100.00;100636.72;5057069;28;20041;-71
2021/12/29 04:43:31;;;;;;;25.80;3.85;;;;;;;6.82;100.00;100640.19;5056491;28;20036;-71
2021/12/29 04:45:56;;;;;;;29.27;4.13;;;;;;;6.82;100.00;100643.69;5056910;28;20044;-72
2021/12/29 04:48:24;;;;;;;27.55;4.22;;;;;;;6.81;100.00;100643.81;5056982;28;20067;-71
2021/12/29 04:50:54;;;;;;;20.83;3.95;;;;;;;6.80;100.00;100647.41;5056902;28;20037;-71
2021/12/29 04:53:22;;;;;;;23.42;5.30;;;;;;;6.80;100.00;100645.59;5057561;28;20053;-71
2021/12/29 04:55:49;;;;;;;18.88;4.95;;;;;;;6.78;100.00;100644.06;5056492;28;20144;-71
2021/12/29 04:58:16;;;;;;;26.15;4.80;;;;;;;6.81;100.00;100643.81;5056935;28;20346;-73
2021/12/29 05:00:41;;;;;;;22.10;4.70;;;;;;;6.81;100.00;100651.75;5054082;28;20025;-72
2021/12/29 05:03:07;;;;;;;23.15;4.65;;;;;;;6.81;100.00;100651.75;5053547;28;20029;-72
2021/12/29 05:10:44;;;;;;;21.75;5.22;;;;;;;6.81;100.00;100651.75;5053331;28;20519;-72
2021/12/29 05:13:09;;;;;;;22.83;5.15;;;;;;;6.81;100.00;100654.38;5053438;28;20040;-71
2021/12/29 05:15:35;;;;;;;21.38;5.65;;;;;;;6.80;100.00;100653.53;5053412;28;20090;-70
2021/12/29 05:18:01;;;;;;;19.02;4.97;;;;;;;6.82;100.00;100654.28;5053648;28;20124;-70
2021/12/29 05:20:28;;;;;;;27.45;5.15;;;;;;;6.82;100.00;100648.97;5053214;28;20029;-71
2021/12/29 05:22:54;;;;;;;11.25;5.10;;;;;;;6.81;100.00;100651.75;5053007;28;20029;-71
2021/12/29 05:25:19;;;;;;;15.35;5.88;;;;;;;6.80;100.00;100663.28;5053556;28;20084;-71
2021/12/29 05:27:45;;;;;;;19.85;5.22;;;;;;;6.79;100.00;100661.59;5053107;28;20406;-71
2021/12/29 05:30:10;;;;;;;13.40;4.85;;;;;;;6.79;100.00;100665.09;5053219;28;20416;-71
2021/12/29 05:32:36;;;;;;;22.73;5.20;;;;;;;6.79;100.00;100658.94;5053427;28;20044;-72
2021/12/29 05:35:02;;;;;;;15.15;5.30;;;;;;;6.81;100.00;100664.97;5052825;28;20363;-71
2021/12/29 05:37:27;;;;;;;14.98;5.60;;;;;;;6.83;100.00;100670.97;5052953;28;20120;-72
2021/12/29 05:39:53;;;;;;;15.68;4.82;;;;;;;6.81;100.00;100667.63;5053215;28;20055;-71
2021/12/29 05:42:18;;;;;;;13.25;4.32;;;;;;;6.82;100.00;100669.28;5053061;28;20063;-72
2021/12/29 05:44:43;;;;;;;20.42;4.55;;;;;;;6.80;100.00;100676.50;5051569;28;20071;-71
2021/12/29 05:47:09;;;;;;;14.57;5.03;;;;;;;6.83;100.00;100673.63;5051895;28;20037;-71
2021/12/29 05:49:34;;;;;;;13.85;4.70;;;;;;;6.81;100.00;100670.25;5053076;28;20086;-72
2021/12/29 05:52:00;;;;;;;15.30;5.60;;;;;;;6.78;100.00;100671.31;5052686;28;20039;-72
2021/12/29 05:54:27;;;;;;;20.23;4.95;;;;;;;6.74;100.00;100671.69;5052661;28;20040;-72
2021/12/29 05:56:53;;;;;;;14.82;5.07;;;;;;;6.74;100.00;100685.75;5051434;28;20391;-72
2021/12/29 05:59:18;;;;;;;15.43;4.75;;;;;;;6.74;100.00;100679.63;5052718;28;20059;-72
2021/12/29 06:01:44;;;;;;;14.38;4.63;;;;;;;6.73;100.00;100684.03;5052460;28;20037;-71
2021/12/29 06:04:10;;;;;;;13.88;4.28;;;;;;;6.76;100.00;100682.97;5052399;28;20366;-71
2021/12/29 06:06:35;;;;;;;15.25;5.20;;;;;;;6.77;100.00;100680.22;5052313;28;20025;-72
2021/12/29 06:09:01;;;;;;;13.30;4.40;;;;;;;6.77;100.00;100685.50;5052052;28;20063;-72
2021/12/29 06:11:26;;;;;;;13.38;4.38;;;;;;;6.77;100.00;100682.84;5052279;28;20136;-72
2021/12/29 06:13:52;;;;;;;17.45;4.32;;;;;;;6.74;100.00;100685.75;5052419;28;20068;-72
2021/12/29 06:16:17;;;;;;;12.35;4.32;;;;;;;6.70;100.00;100682.50;5052716;28;20068;-72
2021/12/29 06:18:42;;;;;;;14.40;4.00;;;;;;;6.68;100.00;100683.56;5052066;28;20450;-71
2021/12/29 06:21:08;;;;;;;19.13;5.25;;;;;;;6.67;100.00;100688.03;5052488;28;20077;-71
2021/12/29 06:23:33;;;;;;;18.55;4.63;;;;;;;6.67;100.00;100687.16;5052087;28;20029;-71
2021/12/29 06:25:58;;;;;;;11.77;4.13;;;;;;;6.65;100.00;100687.28;5051768;28;20483;-72
2021/12/29 06:28:24;;;;;;;18.63;4.47;;;;;;;6.67;100.00;100692.44;5052043;28;20048;-72
2021/12/29 06:30:49;;;;;;;17.13;3.92;;;;;;;6.69;100.00;100695.84;5051943;28;20079;-72
2021/12/29 06:33:15;;;;;;;10.75;3.80;;;;;;;6.67;100.00;100695.09;5052339;28;20056;-72
2021/12/29 06:35:40;;;;;;;15.63;3.70;;;;;;;6.64;100.00;100696.19;5051530;28;20033;-72
2021/12/29 06:38:06;;;;;;;11.23;3.75;;;;;;;6.64;100.00;100704.13;5051788;28;20528;-72
2021/12/29 06:40:31;;;;;;;10.93;4.00;;;;;;;6.64;100.00;100703.25;5049692;28;20492;-72
2021/12/29 06:42:57;;;;;;;11.70;3.95;;;;;;;6.63;100.00;100705.06;5050130;28;20041;-74
2021/12/29 06:45:22;;;;;;;14.18;4.63;;;;;;;6.60;100.00;100704.44;5051062;28;20040;-75
2021/12/29 06:47:48;;;;;;;13.15;4.50;;;;;;;6.59;100.00;100708.91;5051129;28;20029;-75
2021/12/29 06:50:13;;;;;;;9.27;3.92;;;;;;;6.62;100.00;100713.97;5051522;28;20150;-75
2021/12/29 06:52:39;;;;;;;14.50;4.93;;;;;;;6.65;100.00;100712.91;5051397;28;20067;-75
2021/12/29 06:55:05;;;;;;;16.00;4.97;;;;;;;6.66;100.00;100717.22;5051024;28;20037;-75
2021/12/29 06:57:30;;;;;;;9.38;3.83;;;;;;;6.61;100.00;100717.56;5051446;28;20136;-75
2021/12/29 06:59:56;;;;;;;8.30;3.85;;;;;;;6.62;100.00;100718.41;5051517;28;20068;-76
2021/12/29 07:02:21;;;;;;;8.52;4.28;;;;;;;6.59;100.00;100730.06;5051328;28;20116;-77
2021/12/29 07:04:47;;;;;;;11.88;5.38;;;;;;;6.57;100.00;100731.13;5051499;28;20087;-74
2021/12/29 07:07:12;;;;;;;19.15;5.82;;;;;;;6.55;100.00;100731.25;5051153;28;20037;-75
2021/12/29 07:09:38;;;;;;;11.13;6.07;;;;;;;6.57;100.00;100739.06;5051476;28;20097;-75
2021/12/29 07:12:03;;;;;;;15.55;6.43;;;;;;;6.60;100.00;100738.81;5050778;28;20090;-77
2021/12/29 07:14:29;;;;;;;11.40;6.65;;;;;;;6.62;100.00;100742.22;5050914;28;20120;-75
2021/12/29 07:16:54;;;;;;;15.48;7.38;;;;;;;6.64;100.00;100761.44;5051117;28;20139;-73
2021/12/29 07:19:20;;;;;;;19.35;7.32;;;;;;;6.65;100.00;100756.03;5050771;28;20116;-74
2021/12/29 07:21:47;;;;;;;16.15;7.43;;;;;;;6.63;100.00;100755.31;5051160;28;20083;-73
2021/12/29 07:24:13;;;;;;;23.08;8.05;;;;;;;6.65;100.00;100753.38;5050499;28;20449;-73
2021/12/29 07:26:39;;;;;;;18.00;7.13;;;;;;;6.66;100.00;100760.38;5050462;28;20037;-73
2021/12/29 07:29:06;;;;;;;18.75;7.68;;;;;;;6.63;100.00;100760.59;5051379;28;20061;-75
2021/12/29 07:31:31;;;;;;;31.40;9.38;;;;;;;6.60;100.00;100746.75;5050679;28;20044;-73
2021/12/29 07:33:57;;;;;;;22.83;8.57;;;;;;;6.61;100.00;100748.44;5050901;28;20071;-75
2021/12/29 07:36:22;;;;;;;21.98;8.43;;;;;;;6.59;100.00;100745.91;5050874;28;20094;-75
2021/12/29 07:38:48;;;;;;;26.00;8.50;;;;;;;6.61;100.00;100743.16;5050605;28;20222;-74
2021/12/29 07:41:14;;;;;;;22.30;8.60;;;;;;;6.58;100.00;100744.22;5050681;28;20426;-76
2021/12/29 07:43:41;;;;;;;18.63;8.13;;;;;;;6.55;100.00;100739.16;5051025;28;20051;-74
2021/12/29 07:46:07;;;;;;;21.13;8.82;;;;;;;6.53;100.00;100730.53;5050832;28;20105;-76
2021/12/29 07:48:34;;;;;;;17.13;8.68;;;;;;;6.52;100.00;100742.91;5051073;28;20033;-76
2021/12/29 07:51:02;;;;;;;22.20;8.57;;;;;;;6.50;100.00;100742.16;5051351;28;20060;-74
2021/12/29 07:53:28;;;;;;;24.70;9.02;;;;;;;6.47;100.00;100737.09;5051111;28;20412;-76
2021/12/29 07:55:54;;;;;;;27.73;9.23;;;;;;;6.48;100.00;100740.63;5050950;28;20098;-76
2021/12/29 07:58:19;;;;;;;16.58;8.75;;;;;;;6.50;100.00;100743.97;5050725;28;20075;-76
2021/12/29 08:00:45;;;;;;;25.23;8.48;;;;;;;6.51;100.00;100745.66;5050597;28;20029;-76
2021/12/29 08:03:12;;;;;;;18.63;8.52;;;;;;;6.54;100.00;100740.16;5049672;28;20059;-77
2021/12/29 08:05:38;;;;;;;22.92;8.73;;;;;;;6.54;100.00;100740.16;5050505;28;20094;-75
2021/12/29 08:08:05;;;;;;;20.70;8.73;;;;;;;6.53;100.00;100738.44;5050300;28;20032;-76
2021/12/29 08:10:32;;;;;;;21.17;8.70;;;;;;;6.50;100.00;100744.81;5050477;28;20037;-76
2021/12/29 08:12:57;;;;;;;22.27;8.32;;;;;;;6.48;100.00;100757.31;5048888;28;20025;-76
2021/12/29 08:15:23;;;;;;;21.15;9.23;;;;;;;6.48;100.00;100759.94;5050387;28;20033;-76
2021/12/29 08:17:48;;;;;;;18.00;8.52;;;;;;;6.50;100.00;100757.19;5050918;28;20037;-77
2021/12/29 08:20:14;;;;;;;20.77;9.52;;;;;;;6.50;100.00;100763.31;5050498;28;20053;-76
2021/12/29 08:22:39;;;;;;;18.23;9.02;;;;;;;6.49;100.00;100744.91;5050502;28;20063;-76
2021/12/29 08:25:06;;;;;;;22.25;9.45;;;;;;;6.48;100.00;100741.44;5050980;28;20468;-75
2021/12/29 08:27:33;;;;;;;19.75;10.02;;;;;;;6.49;100.00;100745.78;5050144;28;20435;-75
2021/12/29 08:29:59;;;;;;;23.15;10.13;;;;;;;6.51;100.00;100746.50;5050267;28;20029;-79
2021/12/29 08:32:26;;;;;;;21.30;10.30;;;;;;;6.56;100.00;100758.53;5050448;28;20052;-76
2021/12/29 08:34:51;;;;;;;17.67;9.25;;;;;;;6.58;100.00;100761.91;5050283;28;20033;-76
2021/12/29 08:37:17;;;;;;;20.20;9.15;;;;;;;6.55;100.00;100762.97;5051702;28;20115;-75
2021/12/29 08:39:42;;;;;;;20.95;9.75;;;;;;;6.52;100.00;100755.25;5053690;28;20140;-74
2021/12/29 08:42:08;;;;;;;24.38;9.77;;;;;;;6.49;100.00;100763.44;5053925;28;20103;-76
2021/12/29 08:44:33;;;;;;;15.63;9.20;;;;;;;6.45;100.00;100757.53;5054026;28;20029;-77
2021/12/29 08:46:59;;;;;;;22.73;9.48;;;;;;;6.45;100.00;100761.97;5053544;28;20040;-75
2021/12/29 08:49:24;;;;;;;20.23;9.48;;;;;;;6.43;100.00;100763.88;5053801;28;20052;-76
2021/12/29 08:51:49;;;;;;;20.70;8.57;;;;;;;6.38;100.00;100755.47;5053190;28;20107;-76
2021/12/29 08:54:15;;;;;;;18.23;9.10;;;;;;;6.34;100.00;100752.19;5053950;28;20033;-76
2021/12/29 08:56:40;;;;;;;20.05;8.63;;;;;;;6.31;100.00;100739.22;5053986;28;20373;-76
2021/12/29 08:59:06;;;;;;;17.48;8.77;;;;;;;6.29;100.00;100741.13;5053493;28;20100;-78
2021/12/29 09:01:31;;;;;;;19.10;8.50;;;;;;;6.26;100.00;100736.91;5053852;28;20049;-77
2021/12/29 09:03:56;;;;;;;23.90;9.20;;;;;;;6.26;100.00;100741.38;5051722;28;20370;-87
2021/12/29 09:06:22;;;;;;;20.58;9.43;;;;;;;6.23;100.00;100745.06;5053786;28;20036;-78
2021/12/29 09:08:48;;;;;;;21.45;10.43;;;;;;;6.25;100.00;100743.13;5053033;28;20039;-78
2021/12/29 09:11:14;;;;;;;24.48;10.35;;;;;;;6.29;100.00;100739.31;5053230;28;20036;-78
2021/12/29 09:13:40;;;;;;;21.15;9.52;;;;;;;6.33;100.00;100732.03;5051845;28;20029;-79
2021/12/29 09:16:06;;;;;;;30.63;10.98;;;;;;;6.36;100.00;100718.59;5052798;28;20114;-79
2021/12/29 09:18:33;;;;;;;23.52;10.55;;;;;;;6.44;100.00;100721.47;5052816;28;20029;-78
2021/12/29 09:21:07;;;;;;;27.77;11.38;;;;;;;6.53;100.00;100725.25;5051703;28;20334;-77
2021/12/29 09:23:35;;;;;;;21.45;9.70;;;;;;;6.62;100.00;100729.00;5052847;28;20025;-77
2021/12/29 09:26:02;;;;;;;19.15;8.07;;;;;;;6.70;100.00;100742.47;5052807;28;20029;-78
2021/12/29 09:28:27;;;;;;;21.95;8.88;;;;;;;6.76;100.00;100741.97;5052809;28;20421;-75
2021/12/29 09:30:53;;;;;;;23.33;8.02;;;;;;;6.78;100.00;100745.38;5053136;28;20025;-77
2021/12/29 09:33:19;;;;;;;14.57;7.70;;;;;;;6.81;100.00;100754.88;5052765;28;20053;-78
2021/12/29 09:35:51;;;;;;;15.52;7.40;;;;;;;6.80;100.00;100748.72;5052534;28;20128;-76
2021/12/29 09:38:19;;;;;;;18.75;6.93;;;;;;;6.80;100.00;100746.09;5052672;28;20121;-77
2021/12/29 09:40:47;;;;;;;14.52;6.45;;;;;;;6.77;100.00;100737.56;5052661;28;20028;-76
2021/12/29 09:43:12;;;;;;;11.48;6.20;;;;;;;6.71;100.00;100739.69;5052370;28;20040;-81
2021/12/29 09:45:40;;;;;;;9.10;6.28;;;;;;;6.69;100.00;100741.63;5052347;28;20377;-77
2021/12/29 09:48:05;;;;;;;13.57;6.40;;;;;;;6.66;100.00;100728.63;5051554;28;20173;-75
2021/12/29 09:50:31;;;;;;;15.93;7.60;;;;;;;6.66;100.00;100723.34;5050738;28;20540;-77
2021/12/29 09:52:58;;;;;;;16.63;7.47;;;;;;;6.65;100.00;100719.00;5052108;28;20049;-78
2021/12/29 09:55:25;;;;;;;12.65;7.47;;;;;;;6.64;100.00;100720.00;5052432;28;20098;-82
2021/12/29 09:57:53;;;;;;;17.17;7.47;;;;;;;6.67;100.00;100714.47;5052396;28;20091;-75
2021/12/29 10:00:28;;;;;;;12.02;7.35;;;;;;;6.69;100.00;100717.81;5052360;28;20064;-76
2021/12/29 10:02:56;;;;;;;17.33;7.22;;;;;;;6.73;100.00;100717.59;5052638;28;20036;-76
2021/12/29 10:05:24;;;;;;;15.75;6.50;;;;;;;6.75;100.00;100713.00;5053022;28;20075;-79
2021/12/29 10:08:10;;;;;;;22.25;7.80;;;;;;;6.77;100.00;100704.00;5052193;28;20033;-78
2021/12/29 10:10:39;;;;;;;43.05;7.65;;;;;;;6.78;100.00;100692.47;5052268;28;20106;-77
2021/12/29 10:13:07;;;;;;;17.92;6.47;;;;;;;6.82;100.00;100682.50;5052118;28;20029;-81
2021/12/29 10:15:45;;;;;;;17.95;6.05;;;;;;;6.89;100.00;100699.59;5052124;28;20033;-77
2021/12/29 10:18:17;;;;;;;9.68;5.18;;;;;;;6.89;100.00;100687.19;5052217;28;20454;-77
2021/12/29 10:20:47;;;;;;;13.75;5.82;;;;;;;6.92;100.00;100688.75;5052079;28;20139;-77
2021/12/29 10:23:17;;;;;;;10.55;5.97;;;;;;;6.95;100.00;100682.41;5050204;28;20084;-77
2021/12/29 10:25:42;;;;;;;10.30;5.93;;;;;;;6.95;100.00;100688.53;5051879;28;20111;-76
2021/12/29 10:28:22;;;;;;;14.80;6.22;;;;;;;6.97;100.00;100689.28;5052054;28;20428;-77
2021/12/29 10:31:05;;;;;;;11.45;6.28;;;;;;;6.95;100.00;100700.91;5051998;28;20025;-77
2021/12/29 10:33:58;;;;;;;11.38;6.43;;;;;;;6.94;100.00;100701.88;5051632;28;20326;-76
2021/12/29 10:36:36;;;;;;;12.05;7.05;;;;;;;6.95;100.00;100698.28;5048663;28;20120;-80
2021/12/29 10:39:34;;;;;;;14.23;7.22;;;;;;;6.93;100.00;100702.84;5051140;28;20033;-77
2021/12/29 10:42:04;;;;;;;13.68;7.97;;;;;;;6.88;100.00;100705.81;5046624;28;20037;-73
2021/12/29 10:44:43;;;;;;;11.63;6.70;;;;;;;6.87;100.00;100706.81;5051730;28;20057;-76
2021/12/29 10:47:14;;;;;;;11.70;7.47;;;;;;;6.85;100.00;100693.69;5050027;28;20032;-77
2021/12/29 10:49:50;;;;;;;12.65;7.38;;;;;;;6.85;100.00;100696.34;5051520;28;20024;-78
2021/12/29 10:52:26;;;;;;;13.85;7.28;;;;;;;6.81;100.00;100686.97;5051510;28;20086;-77
2021/12/29 10:54:52;;;;;;;10.23;6.63;;;;;;;6.76;100.00;100697.03;5051035;28;20056;-78
2021/12/29 10:57:17;;;;;;;16.65;6.70;;;;;;;6.75;100.00;100703.31;5051150;28;20045;-79
2021/12/29 10:59:43;;;;;;;13.07;6.80;;;;;;;6.72;100.00;100695.59;5050020;28;20033;-79
2021/12/29 11:02:10;;;;;;;14.32;6.90;;;;;;;6.71;100.00;100672.75;5051229;28;20137;-78
2021/12/29 11:04:37;;;;;;;14.88;7.50;;;;;;;6.70;100.00;100644.63;5051136;28;20056;-77
2021/12/29 11:07:04;;;;;;;12.65;8.27;;;;;;;6.71;100.00;100641.03;5051217;28;20040;-79
2021/12/29 11:09:32;;;;;;;31.58;8.25;;;;;;;6.74;100.00;100638.16;5050935;28;20056;-77
2021/12/29 11:11:59;;;;;;;14.55;7.50;;;;;;;6.79;100.00;100648.34;5051091;28;20111;-77
2021/12/29 11:14:33;;;;;;;12.02;7.07;;;;;;;6.86;100.00;100658.34;5049251;28;20160;-75
2021/12/29 11:17:00;;;;;;;16.33;7.68;;;;;;;6.92;100.00;100650.91;5051153;28;20115;-77
2021/12/29 11:19:26;;;;;;;12.90;6.95;;;;;;;6.98;100.00;100653.91;5050908;28;20029;-79
2021/12/29 11:22:15;;;;;;;16.80;7.30;;;;;;;7.03;100.00;100635.88;5051300;28;20033;-75
2021/12/29 11:24:43;;;;;;;20.30;7.80;;;;;;;7.04;100.00;100632.25;5051442;28;20048;-75